Time;durP1;ratioP1;P1;durP2;ratioP2;P2;SDS_P1;SDS_P2;PMS_P1;PMS_P2;Temp;Humidity;BMP_temperature;BMP_pressure;BME280_temperature;BME280_humidity;BME280_pressure;Samples;Min_cycle;Max_cycle;Signal;HPM_P1;HPM_P2
2022/02/01 00:02:07;;;;;;;0.33;0.33;;;;;;;;;;1874054;76;27598;-56
2022/02/01 00:04:39;;;;;;;0.30;0.30;;;;;;;;;;1873961;76;26300;-58
2022/02/01 00:09:54;;;;;;;0.30;0.30;;;;;;;;;;1872743;76;26745;-52
2022/02/01 00:12:24;;;;;;;0.40;0.40;;;;;;;;;;1881772;76;26287;-56
2022/02/01 00:15:12;;;;;;;0.33;0.33;;;;;;;;;;1872388;76;26748;-48
2022/02/01 00:36:27;;;;;;;0.30;0.30;;;;;;;;;;1861699;76;26261;-52
2022/02/01 00:39:00;;;;;;;0.37;0.37;;;;;;;;;;1860082;76;26293;-48
2022/02/01 00:41:35;;;;;;;0.37;0.37;;;;;;;;;;1869924;76;26770;-53
2022/02/01 00:43:52;;;;;;;0.50;0.50;;;;;;;;;;1862126;75;26365;-48
2022/02/01 00:46:19;;;;;;;0.30;0.30;;;;;;;;;;1875778;75;26280;-50
2022/02/01 00:48:46;;;;;;;0.40;0.40;;;;;;;;;;1870319;76;26253;-47
2022/02/01 00:51:14;;;;;;;0.20;0.20;;;;;;;;;;1878951;76;25634;-50
2022/02/01 00:53:42;;;;;;;0.85;0.28;;;;;;;;;;1864642;76;26241;-50
2022/02/01 00:56:10;;;;;;;0.40;0.40;;;;;;;;;;1846921;76;26563;-55
2022/02/01 00:58:38;;;;;;;0.33;0.33;;;;;;;;;;1871488;75;26242;-49
2022/02/01 01:01:06;;;;;;;0.30;0.30;;;;;;;;;;1872820;76;26262;-45
2022/02/01 01:03:33;;;;;;;0.45;0.45;;;;;;;;;;1871538;76;26189;-53
2022/02/01 01:06:01;;;;;;;0.30;0.30;;;;;;;;;;1864564;76;26261;-51
2022/02/01 01:08:29;;;;;;;0.25;0.25;;;;;;;;;;1865929;76;26296;-52
2022/02/01 01:10:57;;;;;;;0.23;0.23;;;;;;;;;;1865514;76;26312;-48
2022/02/01 01:16:19;;;;;;;0.30;0.30;;;;;;;;;;1871474;76;26253;-58
2022/02/01 01:18:49;;;;;;;0.30;0.30;;;;;;;;;;1861421;76;26549;-45
2022/02/01 01:53:59;;;;;;;0.30;0.30;;;;;;;;;;1800266;78;26395;-52
2022/02/01 01:56:25;;;;;;;0.20;0.20;;;;;;;;;;1795073;79;26308;-48
2022/02/01 01:58:53;;;;;;;0.33;0.33;;;;;;;;;;1823691;76;26245;-48
2022/02/01 02:01:20;;;;;;;0.20;0.20;;;;;;;;;;1878754;76;26751;-52
2022/02/01 02:03:49;;;;;;;0.20;0.20;;;;;;;;;;1868675;76;26332;-57
2022/02/01 02:06:17;;;;;;;0.30;0.30;;;;;;;;;;1885587;75;26267;-45
2022/02/01 02:08:46;;;;;;;0.30;0.30;;;;;;;;;;1875502;76;26251;-51
2022/02/01 02:14:19;;;;;;;0.80;0.40;;;;;;;;;;1813526;78;26433;-52
2022/02/01 02:16:48;;;;;;;0.37;0.37;;;;;;;;;;1816681;78;26360;-52
2022/02/01 02:19:16;;;;;;;0.30;0.30;;;;;;;;;;1795456;78;26327;-52
2022/02/01 02:21:51;;;;;;;0.65;0.40;;;;;;;;;;1851798;77;26806;-57
2022/02/01 02:24:19;;;;;;;0.37;0.37;;;;;;;;;;1838275;77;26747;-53
2022/02/01 02:26:49;;;;;;;0.40;0.40;;;;;;;;;;1825818;78;26292;-51
2022/02/01 02:29:16;;;;;;;0.37;0.37;;;;;;;;;;1817230;78;26296;-46
2022/02/01 02:31:43;;;;;;;0.25;0.25;;;;;;;;;;1817396;79;26279;-60
2022/02/01 02:34:13;;;;;;;0.40;0.20;;;;;;;;;;1807572;78;26826;-56
2022/02/01 02:36:52;;;;;;;0.30;0.30;;;;;;;;;;1809290;79;26353;-52
2022/02/01 02:41:52;;;;;;;0.30;0.30;;;;;;;;;;1816605;78;26260;-50
2022/02/01 02:47:05;;;;;;;0.35;0.35;;;;;;;;;;1839711;77;26811;-52
2022/02/01 02:49:33;;;;;;;0.33;0.33;;;;;;;;;;1852638;77;26311;-54
2022/02/01 02:52:00;;;;;;;0.40;0.40;;;;;;;;;;1853267;77;26808;-49
2022/02/01 02:54:28;;;;;;;0.33;0.33;;;;;;;;;;1852038;77;26660;-48
2022/02/01 02:56:57;;;;;;;0.37;0.37;;;;;;;;;;1842179;77;26272;-45
2022/02/01 02:59:25;;;;;;;0.25;0.25;;;;;;;;;;1838280;77;26280;-50
2022/02/01 03:01:53;;;;;;;0.25;0.25;;;;;;;;;;1840441;77;26280;-46
2022/02/01 03:04:22;;;;;;;0.30;0.30;;;;;;;;;;1833016;77;26314;-47
2022/02/01 03:06:50;;;;;;;0.30;0.30;;;;;;;;;;1814763;78;26325;-48
2022/02/01 03:09:19;;;;;;;0.25;0.25;;;;;;;;;;1844155;77;27161;-46
2022/02/01 03:11:48;;;;;;;0.23;0.23;;;;;;;;;;1802193;79;26321;-53
2022/02/01 03:17:15;;;;;;;0.30;0.30;;;;;;;;;;1839713;76;26765;-47
2022/02/01 03:22:13;;;;;;;0.30;0.30;;;;;;;;;;1816801;78;26343;-48
2022/02/01 03:24:40;;;;;;;0.30;0.30;;;;;;;;;;1821655;78;25336;-52
2022/02/01 03:27:07;;;;;;;0.30;0.30;;;;;;;;;;1801392;79;26352;-51
2022/02/01 03:29:35;;;;;;;0.20;0.20;;;;;;;;;;1837551;78;26739;-59
2022/02/01 03:32:02;;;;;;;0.20;0.20;;;;;;;;;;1842971;77;26794;-52
2022/02/01 03:34:30;;;;;;;0.30;0.30;;;;;;;;;;1846713;77;26245;-55
2022/02/01 03:36:57;;;;;;;0.20;0.20;;;;;;;;;;1830568;77;26656;-50
2022/02/01 03:39:24;;;;;;;0.20;0.20;;;;;;;;;;1844955;77;26750;-56
2022/02/01 03:41:52;;;;;;;0.20;0.20;;;;;;;;;;1833092;77;26783;-55
2022/02/01 03:44:20;;;;;;;0.30;0.30;;;;;;;;;;1849397;77;26232;-55
2022/02/01 03:49:25;;;;;;;0.28;0.28;;;;;;;;;;1773282;79;26350;-59
2022/02/01 03:51:58;;;;;;;0.30;0.30;;;;;;;;;;1822334;77;26306;-51
2022/02/01 03:54:22;;;;;;;0.30;0.30;;;;;;;;;;1830311;77;26354;-50
2022/02/01 03:56:49;;;;;;;0.30;0.30;;;;;;;;;;1864809;76;26315;-55
2022/02/01 03:59:17;;;;;;;0.30;0.30;;;;;;;;;;1865597;76;26326;-53
2022/02/01 04:01:45;;;;;;;0.30;0.30;;;;;;;;;;1861998;76;26285;-49
2022/02/01 04:04:13;;;;;;;0.30;0.30;;;;;;;;;;1873812;76;26246;-53
2022/02/01 04:06:41;;;;;;;0.40;0.40;;;;;;;;;;1861519;76;26286;-51
2022/02/01 04:09:09;;;;;;;0.28;0.28;;;;;;;;;;1860193;76;26343;-49
2022/02/01 04:11:36;;;;;;;0.35;0.35;;;;;;;;;;1864351;76;26337;-59
2022/02/01 04:14:03;;;;;;;0.30;0.30;;;;;;;;;;1871154;76;26744;-44
2022/02/01 04:16:30;;;;;;;0.30;0.30;;;;;;;;;;1869873;76;26771;-54
2022/02/01 04:19:02;;;;;;;0.30;0.30;;;;;;;;;;1869491;76;26242;-44
2022/02/01 04:21:27;;;;;;;0.35;0.35;;;;;;;;;;1859810;76;26265;-53
2022/02/01 04:23:54;;;;;;;0.30;0.30;;;;;;;;;;1868271;76;26237;-57
2022/02/01 04:26:21;;;;;;;0.33;0.33;;;;;;;;;;1867954;76;26249;-49
2022/02/01 04:28:49;;;;;;;2.77;0.40;;;;;;;;;;1868075;76;26735;-49
2022/02/01 04:31:16;;;;;;;0.17;0.17;;;;;;;;;;1868835;76;26280;-55
2022/02/01 04:33:43;;;;;;;0.30;0.30;;;;;;;;;;1864518;76;26780;-48
2022/02/01 04:36:12;;;;;;;0.30;0.30;;;;;;;;;;1868888;76;27407;-57
2022/02/01 04:38:46;;;;;;;0.20;0.20;;;;;;;;;;1858768;76;26857;-56
2022/02/01 04:41:09;;;;;;;0.30;0.30;;;;;;;;;;1860980;76;26336;-50
2022/02/01 04:43:37;;;;;;;0.40;0.40;;;;;;;;;;1864100;76;26334;-57
2022/02/01 04:46:05;;;;;;;0.35;0.35;;;;;;;;;;1867978;76;26265;-44
2022/02/01 04:48:33;;;;;;;0.50;0.50;;;;;;;;;;1866100;76;26322;-55
2022/02/01 04:51:01;;;;;;;0.40;0.40;;;;;;;;;;1866379;76;26281;-49
2022/02/01 04:53:28;;;;;;;0.30;0.30;;;;;;;;;;1873025;76;26819;-51
2022/02/01 04:55:55;;;;;;;0.35;0.35;;;;;;;;;;1863901;76;26265;-52
2022/02/01 04:58:23;;;;;;;0.23;0.23;;;;;;;;;;1860134;76;26277;-54
2022/02/01 05:00:52;;;;;;;0.40;0.40;;;;;;;;;;1871690;76;26347;-55
2022/02/01 05:03:19;;;;;;;0.30;0.30;;;;;;;;;;1867773;76;26596;-56
2022/02/01 05:05:46;;;;;;;0.30;0.30;;;;;;;;;;1874233;76;26257;-56
2022/02/01 05:08:14;;;;;;;0.20;0.20;;;;;;;;;;1866667;75;26411;-50
2022/02/01 05:10:42;;;;;;;0.30;0.30;;;;;;;;;;1865317;76;26227;-50
2022/02/01 05:16:08;;;;;;;0.30;0.30;;;;;;;;;;1871499;75;26320;-59
2022/02/01 05:18:45;;;;;;;0.30;0.30;;;;;;;;;;1864272;75;26316;-53
2022/02/01 05:21:13;;;;;;;0.28;0.28;;;;;;;;;;1871023;76;26444;-57
2022/02/01 05:23:37;;;;;;;0.37;0.37;;;;;;;;;;1869521;75;26415;-52
2022/02/01 05:26:04;;;;;;;0.30;0.30;;;;;;;;;;1845196;76;26691;-57
2022/02/01 05:28:31;;;;;;;0.20;0.20;;;;;;;;;;1867225;76;26327;-56
2022/02/01 05:31:02;;;;;;;0.30;0.30;;;;;;;;;;1879032;75;26323;-50
2022/02/01 05:33:29;;;;;;;0.23;0.23;;;;;;;;;;1864029;75;26253;-62
2022/02/01 05:35:56;;;;;;;0.40;0.40;;;;;;;;;;1865396;75;26338;-51
2022/02/01 05:38:23;;;;;;;0.30;0.30;;;;;;;;;;1870706;76;26793;-45
2022/02/01 05:40:51;;;;;;;0.30;0.30;;;;;;;;;;1864244;75;26284;-54
2022/02/01 05:43:27;;;;;;;0.30;0.30;;;;;;;;;;1861138;75;26272;-56
2022/02/01 05:45:51;;;;;;;0.20;0.20;;;;;;;;;;1863872;76;26305;-53
2022/02/01 05:48:19;;;;;;;0.33;0.30;;;;;;;;;;1865712;76;27507;-56
2022/02/01 05:50:51;;;;;;;0.37;0.37;;;;;;;;;;1882076;75;26913;-47
2022/02/01 05:53:18;;;;;;;0.42;0.42;;;;;;;;;;1884240;75;26416;-54
2022/02/01 05:55:48;;;;;;;0.30;0.30;;;;;;;;;;1887168;75;26249;-47
2022/02/01 05:58:15;;;;;;;0.40;0.40;;;;;;;;;;1884974;75;26910;-46
2022/02/01 06:00:42;;;;;;;0.65;0.40;;;;;;;;;;1875489;75;26244;-52
2022/02/01 06:03:10;;;;;;;0.47;0.47;;;;;;;;;;1873003;75;26279;-45
2022/02/01 06:05:38;;;;;;;1.02;0.45;;;;;;;;;;1883330;75;26904;-58
2022/02/01 06:08:05;;;;;;;0.62;0.62;;;;;;;;;;1900091;75;26251;-57
2022/02/01 06:10:33;;;;;;;4.85;0.70;;;;;;;;;;1894213;75;26559;-53
2022/02/01 06:13:00;;;;;;;1.17;0.72;;;;;;;;;;1890128;75;26272;-45
2022/02/01 06:15:29;;;;;;;0.57;0.57;;;;;;;;;;1894930;75;26224;-48
2022/02/01 06:17:56;;;;;;;1.80;0.70;;;;;;;;;;1885618;75;26239;-48
2022/02/01 06:20:24;;;;;;;0.70;0.70;;;;;;;;;;1897734;75;26326;-47
2022/02/01 06:22:51;;;;;;;1.00;0.70;;;;;;;;;;1882556;75;26249;-51
2022/02/01 06:25:31;;;;;;;0.80;0.80;;;;;;;;;;1891038;75;26270;-43
2022/02/01 06:27:47;;;;;;;2.30;0.90;;;;;;;;;;1865684;75;38543;-45
2022/02/01 06:30:15;;;;;;;1.15;0.70;;;;;;;;;;1889118;75;26265;-47
2022/02/01 06:32:42;;;;;;;1.00;0.90;;;;;;;;;;1879815;75;26197;-46
2022/02/01 06:35:10;;;;;;;0.75;0.60;;;;;;;;;;1883890;75;26681;-50
2022/02/01 06:37:37;;;;;;;1.62;0.70;;;;;;;;;;1883344;75;26225;-49
2022/02/01 06:40:05;;;;;;;0.68;0.62;;;;;;;;;;1884232;75;26690;-50
2022/02/01 06:42:35;;;;;;;5.08;0.93;;;;;;;;;;1882636;75;25930;-52
2022/02/01 06:45:03;;;;;;;15.38;0.70;;;;;;;;;;1883737;75;26253;-47
2022/02/01 06:47:30;;;;;;;1.50;0.60;;;;;;;;;;1879943;75;29348;-41
2022/02/01 06:49:58;;;;;;;2.83;1.45;;;;;;;;;;1879228;75;26410;-50
2022/02/01 06:52:25;;;;;;;0.60;0.60;;;;;;;;;;1838237;77;26274;-48
2022/02/01 06:54:53;;;;;;;0.50;0.50;;;;;;;;;;1833779;78;25832;-45
2022/02/01 06:57:20;;;;;;;1.80;0.65;;;;;;;;;;1809911;78;26272;-47
2022/02/01 06:59:47;;;;;;;0.75;0.53;;;;;;;;;;1875585;76;26698;-47
2022/02/01 07:02:15;;;;;;;1.47;0.50;;;;;;;;;;1867209;76;26218;-42
2022/02/01 07:04:42;;;;;;;0.85;0.50;;;;;;;;;;1869655;75;26304;-47
2022/02/01 07:07:09;;;;;;;2.92;0.53;;;;;;;;;;1870033;76;25612;-47
2022/02/01 07:09:37;;;;;;;0.45;0.45;;;;;;;;;;1866489;75;26261;-51
2022/02/01 07:12:05;;;;;;;0.50;0.50;;;;;;;;;;1870103;76;26584;-43
2022/02/01 07:14:32;;;;;;;0.40;0.40;;;;;;;;;;1865858;75;26284;-49
2022/02/01 07:17:00;;;;;;;0.85;0.45;;;;;;;;;;1858012;76;26311;-44
2022/02/01 07:19:27;;;;;;;1.82;0.60;;;;;;;;;;1866882;76;26277;-48
2022/02/01 07:21:54;;;;;;;0.60;0.60;;;;;;;;;;1861497;76;26373;-44
2022/02/01 07:24:28;;;;;;;0.75;0.60;;;;;;;;;;1876173;75;26229;-46
2022/02/01 07:26:56;;;;;;;0.50;0.50;;;;;;;;;;1880659;75;26272;-51
2022/02/01 07:29:19;;;;;;;0.50;0.50;;;;;;;;;;1870934;75;26718;-44
2022/02/01 07:31:47;;;;;;;0.40;0.40;;;;;;;;;;1858347;75;26234;-45
2022/02/01 07:34:15;;;;;;;0.40;0.40;;;;;;;;;;1868756;75;26757;-45
2022/02/01 07:36:42;;;;;;;0.40;0.40;;;;;;;;;;1866154;75;26265;-47
2022/02/01 07:39:10;;;;;;;0.57;0.50;;;;;;;;;;1863268;76;26244;-44
2022/02/01 07:41:38;;;;;;;0.40;0.40;;;;;;;;;;1864913;76;26359;-50
2022/02/01 07:44:06;;;;;;;0.57;0.50;;;;;;;;;;1879325;75;26726;-47
2022/02/01 07:46:34;;;;;;;0.30;0.20;;;;;;;;;;1863746;76;26237;-53
2022/02/01 07:49:02;;;;;;;0.40;0.40;;;;;;;;;;1861826;76;28643;-45
2022/02/01 07:51:30;;;;;;;2.10;0.45;;;;;;;;;;1869630;76;26281;-43
2022/02/01 07:53:57;;;;;;;1.85;0.60;;;;;;;;;;1868821;76;26352;-49
2022/02/01 07:56:25;;;;;;;1.00;0.35;;;;;;;;;;1873199;76;26234;-38
2022/02/01 07:58:52;;;;;;;0.50;0.50;;;;;;;;;;1871830;75;26264;-42
2022/02/01 08:01:19;;;;;;;0.60;0.60;;;;;;;;;;1863124;76;26336;-41
2022/02/01 08:03:47;;;;;;;2.25;0.60;;;;;;;;;;1860183;75;26304;-52
2022/02/01 08:06:15;;;;;;;0.60;0.42;;;;;;;;;;1879840;75;26319;-46
2022/02/01 08:08:43;;;;;;;0.60;0.60;;;;;;;;;;1881883;75;26222;-46
2022/02/01 08:11:14;;;;;;;1.35;0.50;;;;;;;;;;1870418;75;26324;-44
2022/02/01 08:19:14;;;;;;;0.47;0.47;;;;;;;;;;1868437;76;26329;-46
2022/02/01 08:21:43;;;;;;;0.40;0.40;;;;;;;;;;1853080;75;26277;-45
2022/02/01 08:24:05;;;;;;;1.65;0.37;;;;;;;;;;1867973;76;26272;-45
2022/02/01 08:26:32;;;;;;;0.40;0.40;;;;;;;;;;1877657;76;26258;-48
2022/02/01 08:28:59;;;;;;;0.40;0.40;;;;;;;;;;1861079;76;26249;-46
2022/02/01 08:31:27;;;;;;;0.68;0.65;;;;;;;;;;1871783;75;26240;-44
2022/02/01 08:33:54;;;;;;;0.72;0.50;;;;;;;;;;1878384;75;26639;-46
2022/02/01 08:36:21;;;;;;;0.50;0.50;;;;;;;;;;1863811;76;26230;-44
2022/02/01 08:38:49;;;;;;;1.37;0.40;;;;;;;;;;1865950;76;26198;-44
2022/02/01 08:41:16;;;;;;;1.27;0.40;;;;;;;;;;1875678;75;26289;-40
2022/02/01 08:43:43;;;;;;;0.42;0.40;;;;;;;;;;1865631;75;26226;-50
2022/02/01 08:46:11;;;;;;;2.75;0.40;;;;;;;;;;1864497;76;26252;-45
2022/02/01 08:48:38;;;;;;;0.50;0.50;;;;;;;;;;1870848;76;27154;-47
2022/02/01 08:51:08;;;;;;;0.50;0.50;;;;;;;;;;1872473;76;26824;-43
2022/02/01 08:53:46;;;;;;;0.28;0.28;;;;;;;;;;1871680;75;26402;-45
2022/02/01 08:56:06;;;;;;;0.40;0.40;;;;;;;;;;1864444;75;26375;-46
2022/02/01 08:58:33;;;;;;;0.40;0.40;;;;;;;;;;1874272;76;26318;-42
2022/02/01 09:01:00;;;;;;;0.50;0.50;;;;;;;;;;1870447;75;27450;-42
2022/02/01 09:03:28;;;;;;;0.40;0.40;;;;;;;;;;1863438;75;26199;-43
2022/02/01 09:05:56;;;;;;;0.55;0.50;;;;;;;;;;1848174;75;28112;-51
2022/02/01 09:08:25;;;;;;;0.50;0.50;;;;;;;;;;1870328;75;26295;-42
2022/02/01 09:10:52;;;;;;;0.50;0.50;;;;;;;;;;1858372;76;28153;-47
2022/02/01 09:13:20;;;;;;;0.53;0.53;;;;;;;;;;1867681;75;26729;-45
2022/02/01 09:15:48;;;;;;;0.40;0.40;;;;;;;;;;1871408;75;26253;-54
2022/02/01 09:18:15;;;;;;;0.47;0.47;;;;;;;;;;1864355;75;26335;-42
2022/02/01 09:20:42;;;;;;;0.55;0.40;;;;;;;;;;1872278;76;26322;-49
2022/02/01 09:23:09;;;;;;;0.50;0.50;;;;;;;;;;1868596;76;26262;-45
2022/02/01 09:25:37;;;;;;;0.40;0.40;;;;;;;;;;1868109;76;26836;-50
2022/02/01 09:28:04;;;;;;;0.40;0.40;;;;;;;;;;1874957;76;26226;-48
2022/02/01 09:30:32;;;;;;;0.47;0.47;;;;;;;;;;1853150;76;26258;-44
2022/02/01 09:33:00;;;;;;;0.50;0.50;;;;;;;;;;1874341;76;26289;-44
2022/02/01 09:35:28;;;;;;;0.40;0.40;;;;;;;;;;1868234;76;26864;-46
2022/02/01 09:37:55;;;;;;;0.50;0.50;;;;;;;;;;1867497;76;26245;-51
2022/02/01 09:40:23;;;;;;;0.65;0.40;;;;;;;;;;1879937;75;26950;-41
2022/02/01 09:42:50;;;;;;;1.85;0.35;;;;;;;;;;1856284;75;26261;-46
2022/02/01 09:45:18;;;;;;;2.72;0.40;;;;;;;;;;1866210;76;26274;-46
2022/02/01 09:47:46;;;;;;;0.50;0.50;;;;;;;;;;1852602;76;26274;-48
2022/02/01 09:50:17;;;;;;;0.40;0.40;;;;;;;;;;1871788;75;26324;-43
2022/02/01 09:52:44;;;;;;;0.45;0.45;;;;;;;;;;1870523;75;26834;-47
2022/02/01 09:55:14;;;;;;;0.40;0.40;;;;;;;;;;1874131;76;26264;-44
2022/02/01 09:57:45;;;;;;;0.37;0.37;;;;;;;;;;1881466;75;26260;-46
2022/02/01 10:00:20;;;;;;;0.40;0.40;;;;;;;;;;1877434;75;26830;-47
2022/02/01 10:02:47;;;;;;;0.40;0.40;;;;;;;;;;1878487;75;26329;-51
2022/02/01 10:05:16;;;;;;;0.50;0.40;;;;;;;;;;1889984;74;26816;-47
2022/02/01 10:07:48;;;;;;;0.40;0.40;;;;;;;;;;1889038;75;26725;-44
2022/02/01 10:10:15;;;;;;;0.40;0.40;;;;;;;;;;1869892;75;26316;-44
2022/02/01 10:12:43;;;;;;;0.50;0.50;;;;;;;;;;1873251;76;27394;-51
2022/02/01 10:15:19;;;;;;;0.40;0.40;;;;;;;;;;1882109;74;26848;-47
2022/02/01 10:17:49;;;;;;;1.17;0.45;;;;;;;;;;1882993;74;26374;-46
2022/02/01 10:20:16;;;;;;;0.30;0.30;;;;;;;;;;1885052;76;26324;-47
2022/02/01 10:22:45;;;;;;;0.40;0.40;;;;;;;;;;1884402;76;26395;-45
2022/02/01 10:25:23;;;;;;;0.50;0.50;;;;;;;;;;1884672;75;26308;-44
2022/02/01 10:27:57;;;;;;;0.40;0.40;;;;;;;;;;1880192;75;26885;-49
2022/02/01 10:30:30;;;;;;;0.50;0.50;;;;;;;;;;1885411;74;26319;-58
2022/02/01 10:38:01;;;;;;;0.50;0.50;;;;;;;;;;1884361;74;26798;-50
2022/02/01 10:40:44;;;;;;;2.02;0.40;;;;;;;;;;1883572;76;26746;-48
2022/02/01 10:43:18;;;;;;;1.30;0.45;;;;;;;;;;1870367;74;26289;-50
2022/02/01 10:45:46;;;;;;;0.50;0.50;;;;;;;;;;1886226;76;26254;-54
2022/02/01 10:48:14;;;;;;;0.50;0.50;;;;;;;;;;1876986;76;26263;-45
2022/02/01 10:50:42;;;;;;;3.02;0.40;;;;;;;;;;1884007;76;26774;-47
2022/02/01 10:53:16;;;;;;;0.50;0.50;;;;;;;;;;1861418;75;28156;-44
2022/02/01 10:55:44;;;;;;;1.47;0.50;;;;;;;;;;1855323;75;28643;-50
2022/02/01 10:58:12;;;;;;;0.60;0.60;;;;;;;;;;1875315;75;26296;-46
2022/02/01 11:00:40;;;;;;;0.40;0.40;;;;;;;;;;1874883;75;26296;-50
2022/02/01 11:03:07;;;;;;;0.82;0.50;;;;;;;;;;1874732;75;27806;-45
2022/02/01 11:05:36;;;;;;;0.75;0.50;;;;;;;;;;1872645;76;26288;-44
2022/02/01 11:08:04;;;;;;;0.50;0.50;;;;;;;;;;1870726;76;26343;-51
2022/02/01 11:10:31;;;;;;;0.42;0.42;;;;;;;;;;1863873;75;27552;-49
2022/02/01 11:13:08;;;;;;;0.57;0.40;;;;;;;;;;1871721;76;26304;-47
2022/02/01 11:15:36;;;;;;;0.80;0.40;;;;;;;;;;1860727;76;26870;-46
2022/02/01 11:18:10;;;;;;;0.40;0.40;;;;;;;;;;1869046;76;26257;-48
2022/02/01 11:20:38;;;;;;;0.62;0.62;;;;;;;;;;1867423;76;26310;-46
2022/02/01 11:23:10;;;;;;;0.50;0.50;;;;;;;;;;1869066;76;26269;-48
2022/02/01 11:25:45;;;;;;;0.40;0.40;;;;;;;;;;1862942;76;26348;-45
2022/02/01 11:28:16;;;;;;;1.65;0.47;;;;;;;;;;1865667;76;26339;-45
2022/02/01 11:30:43;;;;;;;0.45;0.45;;;;;;;;;;1868112;76;26230;-51
2022/02/01 11:33:11;;;;;;;0.45;0.45;;;;;;;;;;1871667;76;26292;-44
2022/02/01 11:35:39;;;;;;;0.40;0.40;;;;;;;;;;1868894;76;26645;-43
2022/02/01 11:38:10;;;;;;;0.50;0.50;;;;;;;;;;1875163;76;26296;-50
2022/02/01 11:40:39;;;;;;;0.40;0.40;;;;;;;;;;1861311;76;26650;-46
2022/02/01 11:43:07;;;;;;;0.82;0.50;;;;;;;;;;1871142;76;26785;-52
2022/02/01 11:45:36;;;;;;;0.75;0.40;;;;;;;;;;1864112;76;26719;-48
2022/02/01 11:48:05;;;;;;;0.50;0.50;;;;;;;;;;1878470;76;26261;-42
2022/02/01 11:50:34;;;;;;;0.45;0.40;;;;;;;;;;1866267;76;26391;-41
2022/02/01 11:53:02;;;;;;;0.50;0.50;;;;;;;;;;1874491;76;26304;-41
2022/02/01 11:55:31;;;;;;;1.95;0.60;;;;;;;;;;1883734;75;26323;-44
2022/02/01 11:57:59;;;;;;;0.40;0.40;;;;;;;;;;1879848;76;26248;-43
2022/02/01 12:00:27;;;;;;;0.50;0.50;;;;;;;;;;1876668;76;26789;-49
2022/02/01 12:02:57;;;;;;;0.40;0.40;;;;;;;;;;1871552;76;26669;-47
2022/02/01 12:05:29;;;;;;;1.55;0.47;;;;;;;;;;1867948;76;28234;-53
2022/02/01 12:08:04;;;;;;;0.50;0.50;;;;;;;;;;1877930;76;26405;-45
2022/02/01 12:10:31;;;;;;;0.75;0.75;;;;;;;;;;1873868;76;26795;-47
2022/02/01 12:13:00;;;;;;;0.60;0.60;;;;;;;;;;1883481;75;26811;-42
2022/02/01 12:15:28;;;;;;;0.55;0.55;;;;;;;;;;1880866;75;26800;-50
2022/02/01 12:17:59;;;;;;;1.57;0.80;;;;;;;;;;1880652;75;26777;-48
2022/02/01 12:20:28;;;;;;;0.50;0.50;;;;;;;;;;1879427;76;26800;-48
2022/02/01 12:23:15;;;;;;;0.60;0.60;;;;;;;;;;1875786;75;26672;-46
2022/02/01 12:25:42;;;;;;;2.70;0.50;;;;;;;;;;1871894;76;26663;-46
2022/02/01 12:28:14;;;;;;;0.50;0.50;;;;;;;;;;1887328;76;26769;-42
2022/02/01 12:30:42;;;;;;;0.60;0.60;;;;;;;;;;1869704;76;26308;-41
2022/02/01 12:33:17;;;;;;;2.27;0.72;;;;;;;;;;1888916;76;26258;-41
2022/02/01 12:35:46;;;;;;;1.22;0.55;;;;;;;;;;1877583;76;26752;-46
2022/02/01 12:38:20;;;;;;;0.47;0.47;;;;;;;;;;1877002;76;26686;-47
2022/02/01 12:40:48;;;;;;;0.50;0.50;;;;;;;;;;1872190;75;26283;-40
2022/02/01 12:43:21;;;;;;;0.40;0.40;;;;;;;;;;1878109;76;26775;-42
2022/02/01 12:45:56;;;;;;;0.57;0.57;;;;;;;;;;1880368;76;26276;-43
2022/02/01 12:48:18;;;;;;;0.57;0.57;;;;;;;;;;1869849;76;26339;-44
2022/02/01 12:51:00;;;;;;;0.37;0.37;;;;;;;;;;1858154;76;26293;-46
2022/02/01 12:53:27;;;;;;;1.65;0.50;;;;;;;;;;1885157;75;26303;-52
2022/02/01 12:55:55;;;;;;;1.60;0.50;;;;;;;;;;1883555;75;26302;-51
2022/02/01 12:58:22;;;;;;;0.47;0.47;;;;;;;;;;1885097;75;26756;-41
2022/02/01 13:00:52;;;;;;;0.60;0.60;;;;;;;;;;1878927;75;28623;-54
2022/02/01 13:03:21;;;;;;;0.75;0.60;;;;;;;;;;1879360;75;26321;-45
2022/02/01 13:05:50;;;;;;;0.75;0.55;;;;;;;;;;1882850;75;26723;-45
2022/02/01 13:21:39;;;;;;;0.40;0.40;;;;;;;;;;1892506;75;26265;-48
2022/02/01 13:24:11;;;;;;;1.00;0.68;;;;;;;;;;1879250;75;27315;-47
2022/02/01 13:26:37;;;;;;;0.50;0.50;;;;;;;;;;1890965;75;26449;-49
2022/02/01 13:29:06;;;;;;;0.40;0.40;;;;;;;;;;1882282;75;26254;-48
2022/02/01 13:31:35;;;;;;;0.50;0.50;;;;;;;;;;1883839;75;26253;-51
2022/02/01 13:34:04;;;;;;;0.40;0.40;;;;;;;;;;1887923;75;26318;-56
2022/02/01 13:36:33;;;;;;;0.62;0.60;;;;;;;;;;1885736;75;26284;-49
2022/02/01 13:39:02;;;;;;;0.50;0.50;;;;;;;;;;1879010;75;26298;-56
2022/02/01 13:41:31;;;;;;;0.40;0.40;;;;;;;;;;1889029;75;26260;-42
2022/02/01 13:44:02;;;;;;;0.50;0.50;;;;;;;;;;1885805;75;26308;-42
2022/02/01 13:46:30;;;;;;;0.60;0.60;;;;;;;;;;1882332;75;26283;-44
2022/02/01 13:49:02;;;;;;;0.60;0.60;;;;;;;;;;1881697;75;26288;-51
2022/02/01 13:51:29;;;;;;;0.50;0.50;;;;;;;;;;1887361;75;26295;-48
2022/02/01 13:53:58;;;;;;;0.50;0.50;;;;;;;;;;1889221;75;26367;-44
2022/02/01 13:56:29;;;;;;;0.50;0.50;;;;;;;;;;1875230;75;26316;-44
2022/02/01 13:59:10;;;;;;;0.40;0.40;;;;;;;;;;1883135;75;26336;-53
2022/02/01 14:01:40;;;;;;;1.55;0.42;;;;;;;;;;1878911;75;26324;-47
2022/02/01 14:04:13;;;;;;;0.50;0.50;;;;;;;;;;1871304;75;26296;-50
2022/02/01 14:06:50;;;;;;;0.40;0.40;;;;;;;;;;1879796;75;26250;-46
2022/02/01 14:09:27;;;;;;;1.55;0.60;;;;;;;;;;1867932;76;26326;-45
2022/02/01 14:25:47;;;;;;;0.50;0.50;;;;;;;;;;1874954;76;26281;-44
2022/02/01 14:36:11;;;;;;;0.60;0.60;;;;;;;;;;1872569;76;26340;-42
2022/02/01 14:38:58;;;;;;;0.60;0.60;;;;;;;;;;1861403;76;26284;-48
2022/02/01 14:46:41;;;;;;;0.70;0.70;;;;;;;;;;1854543;76;26263;-45
2022/02/01 14:49:08;;;;;;;0.95;0.40;;;;;;;;;;1879471;75;26326;-41
2022/02/01 14:51:35;;;;;;;0.50;0.50;;;;;;;;;;1864987;75;26344;-45
2022/02/01 14:54:06;;;;;;;0.57;0.57;;;;;;;;;;1845206;76;26307;-51
2022/02/01 14:56:36;;;;;;;2.27;0.50;;;;;;;;;;1879709;75;26344;-49
2022/02/01 15:07:20;;;;;;;0.40;0.40;;;;;;;;;;1889158;75;26265;-56
2022/02/01 15:12:42;;;;;;;4.12;0.50;;;;;;;;;;1877950;75;26280;-47
2022/02/01 15:15:07;;;;;;;0.60;0.60;;;;;;;;;;1881677;75;26805;-46
2022/02/01 15:17:34;;;;;;;0.50;0.50;;;;;;;;;;1877991;75;26307;-47
2022/02/01 15:20:06;;;;;;;0.50;0.50;;;;;;;;;;1875439;75;26271;-43
2022/02/01 15:22:33;;;;;;;0.60;0.60;;;;;;;;;;1882945;75;26327;-50
2022/02/01 15:25:01;;;;;;;0.50;0.50;;;;;;;;;;1885561;75;26739;-46
2022/02/01 15:27:28;;;;;;;0.50;0.50;;;;;;;;;;1888447;75;26375;-54
2022/02/01 15:29:55;;;;;;;0.95;0.60;;;;;;;;;;1880339;75;26358;-51
2022/02/01 15:32:23;;;;;;;0.60;0.60;;;;;;;;;;1883556;75;26325;-46
2022/02/01 15:34:50;;;;;;;0.60;0.60;;;;;;;;;;1875743;75;26886;-44
2022/02/01 15:37:22;;;;;;;0.70;0.70;;;;;;;;;;1880410;74;26304;-43
2022/02/01 15:58:48;;;;;;;0.50;0.50;;;;;;;;;;1862022;76;26856;-44
2022/02/01 16:01:31;;;;;;;0.70;0.70;;;;;;;;;;1859950;76;26264;-45
2022/02/01 16:03:48;;;;;;;0.70;0.70;;;;;;;;;;1863312;76;26694;-43
2022/02/01 16:06:16;;;;;;;0.60;0.60;;;;;;;;;;1869397;76;26264;-51
2022/02/01 16:08:45;;;;;;;0.60;0.60;;;;;;;;;;1869802;76;26642;-42
2022/02/01 16:11:14;;;;;;;0.70;0.70;;;;;;;;;;1863543;76;26378;-44
2022/02/01 16:13:44;;;;;;;0.60;0.60;;;;;;;;;;1864889;75;26289;-47
2022/02/01 16:16:11;;;;;;;0.70;0.70;;;;;;;;;;1860995;75;26384;-52
2022/02/01 16:18:40;;;;;;;0.70;0.70;;;;;;;;;;1863788;76;26567;-45
2022/02/01 16:21:08;;;;;;;0.95;0.75;;;;;;;;;;1871212;74;26290;-46
2022/02/01 16:23:36;;;;;;;0.75;0.70;;;;;;;;;;1855955;76;26210;-47
2022/02/01 16:26:03;;;;;;;0.70;0.70;;;;;;;;;;1865724;75;26642;-42
2022/02/01 16:28:30;;;;;;;0.47;0.47;;;;;;;;;;1852290;76;26717;-42
2022/02/01 16:30:58;;;;;;;0.62;0.62;;;;;;;;;;1863410;76;26281;-43
2022/02/01 16:33:25;;;;;;;0.75;0.75;;;;;;;;;;1874384;75;26345;-45
2022/02/01 16:35:52;;;;;;;0.70;0.70;;;;;;;;;;1871111;76;26265;-45
2022/02/01 16:38:19;;;;;;;0.78;0.70;;;;;;;;;;1856098;76;26721;-46
2022/02/01 16:40:47;;;;;;;0.70;0.70;;;;;;;;;;1879938;76;26647;-43
2022/02/01 16:43:17;;;;;;;0.70;0.70;;;;;;;;;;1878632;74;26714;-43
2022/02/01 16:45:44;;;;;;;0.70;0.70;;;;;;;;;;1865504;76;26684;-42
2022/02/01 16:48:13;;;;;;;0.80;0.72;;;;;;;;;;1881010;76;26308;-46
2022/02/01 16:50:41;;;;;;;0.60;0.60;;;;;;;;;;1859838;76;25696;-42
2022/02/01 16:53:16;;;;;;;0.70;0.70;;;;;;;;;;1879292;76;26264;-43
2022/02/01 16:55:48;;;;;;;0.65;0.65;;;;;;;;;;1884333;76;26329;-46
2022/02/01 16:58:26;;;;;;;0.60;0.60;;;;;;;;;;1871408;74;26256;-44
2022/02/01 17:00:54;;;;;;;1.17;0.75;;;;;;;;;;1876141;75;26367;-44
2022/02/01 17:03:22;;;;;;;0.78;0.78;;;;;;;;;;1881795;76;26256;-43
2022/02/01 17:05:56;;;;;;;0.70;0.70;;;;;;;;;;1875612;76;26300;-43
2022/02/01 17:08:20;;;;;;;0.70;0.70;;;;;;;;;;1889306;76;26309;-44
2022/02/01 17:10:51;;;;;;;0.70;0.70;;;;;;;;;;1881483;76;26272;-43
2022/02/01 17:13:22;;;;;;;0.70;0.70;;;;;;;;;;1862899;76;26306;-43
2022/02/01 17:18:36;;;;;;;0.78;0.78;;;;;;;;;;1879329;76;26705;-45
2022/02/01 17:23:41;;;;;;;0.70;0.70;;;;;;;;;;1878953;75;26339;-43
2022/02/01 17:26:08;;;;;;;0.70;0.70;;;;;;;;;;1874676;76;26284;-42
2022/02/01 17:28:36;;;;;;;0.70;0.70;;;;;;;;;;1875670;76;26213;-44
2022/02/01 17:31:03;;;;;;;0.70;0.70;;;;;;;;;;1874882;76;26834;-47
2022/02/01 17:33:30;;;;;;;0.70;0.70;;;;;;;;;;1866811;76;26685;-43
2022/02/01 17:35:57;;;;;;;0.70;0.70;;;;;;;;;;1872350;76;26646;-42